Time;durP1;ratioP1;P1;durP2;ratioP2;P2;SDS_P1;SDS_P2;PMS_P1;PMS_P2;Temp;Humidity;BMP_temperature;BMP_pressure;BME280_temperature;BME280_humidity;BME280_pressure;Samples;Min_cycle;Max_cycle;Signal;HPM_P1;HPM_P2
2023/11/03 00:06:07;;;;;;;1.63;0.73;;;;;;;10.67;81.42;98121.00;15708867;28;20041;-52
2023/11/03 00:13:42;;;;;;;;;;;;;;;10.79;81.47;98126.03;15709039;28;20574;-60
2023/11/03 00:21:15;;;;;;;0.32;0.32;;;;;;;10.57;81.80;98098.78;15727235;28;19939;-53
2023/11/03 00:28:50;;;;;;;0.77;0.77;;;;;;;10.63;81.48;98137.91;15728174;28;20047;-56
2023/11/03 00:36:33;;;;;;;0.43;0.25;;;;;;;10.59;81.41;98198.56;15713257;28;20481;-55
2023/11/03 00:44:12;;;;;;;0.40;0.40;;;;;;;10.74;80.93;98166.31;15700943;28;20069;-58
2023/11/03 00:51:46;;;;;;;0.20;0.20;;;;;;;10.66;79.44;98138.16;15728426;28;20068;-51
2023/11/03 00:59:20;;;;;;;0.03;0.03;;;;;;;10.89;78.50;98125.19;15709600;28;20033;-57
2023/11/03 01:06:54;;;;;;;1.45;0.35;;;;;;;10.91;77.99;98153.38;15698187;28;20036;-51
2023/11/03 01:14:32;;;;;;;2.22;0.68;;;;;;;10.80;78.60;98151.78;15710581;28;20533;-53
2023/11/03 01:22:07;;;;;;;0.00;0.00;;;;;;;10.76;78.24;98141.88;15707705;28;20052;-53
2023/11/03 01:29:42;;;;;;;1.08;0.85;;;;;;;10.79;77.29;98155.56;15708180;28;20168;-52
2023/11/03 01:37:16;;;;;;;0.20;0.20;;;;;;;10.71;78.02;98134.66;15709291;28;20040;-54
2023/11/03 01:44:51;;;;;;;0.15;0.15;;;;;;;10.98;76.47;98110.91;15696048;28;20123;-54
2023/11/03 01:52:26;;;;;;;0.00;0.00;;;;;;;11.30;75.33;98115.00;15709920;28;20045;-53
2023/11/03 02:00:03;;;;;;;0.00;0.00;;;;;;;11.18;75.70;98083.13;15705303;28;20620;-54
2023/11/03 02:07:39;;;;;;;0.20;0.20;;;;;;;11.06;75.72;98077.31;15736577;28;20032;-55
2023/11/03 02:15:18;;;;;;;0.38;0.30;;;;;;;11.10;74.40;98096.38;15716084;28;20040;-50
2023/11/03 02:22:57;;;;;;;0.00;0.00;;;;;;;11.30;73.93;98095.41;15720841;28;20467;-49
2023/11/03 02:30:30;;;;;;;0.22;0.20;;;;;;;11.17;73.89;98065.44;15738273;28;20498;-52
2023/11/03 02:38:05;;;;;;;0.00;0.00;;;;;;;11.19;73.39;98049.03;15696847;28;20041;-56
2023/11/03 02:45:38;;;;;;;1.95;0.40;;;;;;;11.02;73.98;98060.16;15702334;28;20666;-53
2023/11/03 02:53:12;;;;;;;0.00;0.00;;;;;;;10.86;74.77;98080.91;15711490;28;20354;-50
2023/11/03 03:00:48;;;;;;;0.57;0.57;;;;;;;10.56;75.81;98068.47;15717982;28;20040;-53
2023/11/03 03:08:25;;;;;;;0.43;0.22;;;;;;;10.64;75.71;98067.91;15722491;28;20044;-55
2023/11/03 03:15:58;;;;;;;0.05;0.05;;;;;;;10.38;76.21;98077.94;15716588;28;20037;-54
2023/11/03 03:23:35;;;;;;;0.00;0.00;;;;;;;9.99;77.81;98083.13;15716494;28;20063;-46
2023/11/03 03:31:10;;;;;;;0.28;0.28;;;;;;;9.94;78.79;98105.38;15698276;28;20089;-57
2023/11/03 03:38:45;;;;;;;0.30;0.17;;;;;;;9.85;78.84;98101.63;15733008;28;20123;-54
2023/11/03 03:46:21;;;;;;;3.00;1.55;;;;;;;9.61;79.64;98101.38;15722873;28;20051;-56
2023/11/03 03:54:12;;;;;;;0.68;0.25;;;;;;;9.83;78.69;98102.97;15705548;28;20080;-53
2023/11/03 04:01:45;;;;;;;0.20;0.20;;;;;;;9.90;78.00;98087.44;15709625;28;20476;-54
2023/11/03 04:09:21;;;;;;;0.30;0.20;;;;;;;9.80;78.45;98076.72;15719714;28;20089;-51
2023/11/03 04:16:54;;;;;;;1.00;0.30;;;;;;;9.33;80.37;98080.50;15714134;28;20064;-52
2023/11/03 04:24:28;;;;;;;0.00;0.00;;;;;;;9.78;78.17;98092.25;15729711;28;20576;-51
2023/11/03 04:32:06;;;;;;;0.00;0.00;;;;;;;9.63;79.23;98098.44;15718638;28;20071;-49
2023/11/03 04:39:41;;;;;;;0.10;0.10;;;;;;;9.71;78.21;98103.25;15729812;28;20057;-56
2023/11/03 04:47:14;;;;;;;0.00;0.00;;;;;;;9.23;79.56;98091.97;15718819;28;20070;-56
2023/11/03 04:54:49;;;;;;;0.00;0.00;;;;;;;9.22;79.93;98084.22;15704068;28;20062;-58
2023/11/03 05:02:22;;;;;;;0.10;0.10;;;;;;;9.51;78.70;98081.81;15711974;28;20146;-53
2023/11/03 05:10:00;;;;;;;0.15;0.15;;;;;;;9.42;78.90;98073.56;15728175;28;20049;-50
2023/11/03 05:17:34;;;;;;;0.00;0.00;;;;;;;9.17;78.94;98069.78;15725043;28;20087;-57
2023/11/03 05:25:09;;;;;;;;;;;;;;;9.47;77.53;98070.88;15706840;28;20040;-56
2023/11/03 05:32:45;;;;;;;1.58;0.52;;;;;;;9.83;76.39;98095.72;15719801;28;19920;-54
2023/11/03 05:40:22;;;;;;;0.00;0.00;;;;;;;9.22;77.77;98086.91;15737177;28;20096;-59
2023/11/03 05:47:56;;;;;;;0.00;0.00;;;;;;;9.61;77.00;98117.47;15727090;28;20040;-52
2023/11/03 05:55:31;;;;;;;0.17;0.17;;;;;;;9.46;76.66;98109.41;15735700;28;20431;-50
2023/11/03 06:03:11;;;;;;;0.10;0.10;;;;;;;9.27;77.57;98108.31;15688218;28;20033;-50
2023/11/03 06:10:50;;;;;;;0.08;0.08;;;;;;;9.16;77.15;98102.97;15712254;28;20044;-53
2023/11/03 06:18:23;;;;;;;0.00;0.00;;;;;;;8.95;77.94;98136.09;15732865;28;20051;-55
2023/11/03 06:25:58;;;;;;;0.22;0.22;;;;;;;9.17;76.55;98176.81;15707785;28;20036;-55
2023/11/03 06:33:31;;;;;;;0.00;0.00;;;;;;;9.20;75.79;98194.25;15736017;28;20040;-52
2023/11/03 06:41:06;;;;;;;0.00;0.00;;;;;;;8.78;76.25;98208.53;15710764;28;20120;-53
2023/11/03 06:48:40;;;;;;;0.00;0.00;;;;;;;9.55;72.97;98182.78;15727381;28;20489;-53
2023/11/03 06:56:15;;;;;;;0.00;0.00;;;;;;;9.83;72.73;98183.34;15716189;28;20122;-53
2023/11/03 07:03:48;;;;;;;0.00;0.00;;;;;;;9.60;72.78;98188.13;15740475;22;20110;-51
2023/11/03 07:11:25;;;;;;;0.00;0.00;;;;;;;9.79;71.71;98187.63;15740539;28;20424;-56
2023/11/03 07:19:01;;;;;;;0.00;0.00;;;;;;;9.91;71.88;98172.09;15706817;28;20151;-54
2023/11/03 07:26:36;;;;;;;0.00;0.00;;;;;;;9.87;71.90;98189.75;15725613;28;20370;-50
2023/11/03 07:34:15;;;;;;;0.00;0.00;;;;;;;10.09;70.85;98187.63;15679480;28;20045;-54
2023/11/03 07:41:52;;;;;;;0.00;0.00;;;;;;;9.37;71.69;98188.63;15670178;28;20448;-53
2023/11/03 07:49:25;;;;;;;0.00;0.00;;;;;;;9.31;72.13;98214.59;15702227;28;20119;-53
2023/11/03 07:57:05;;;;;;;0.00;0.00;;;;;;;9.60;72.14;98230.97;15675295;28;20048;-50
2023/11/03 08:04:40;;;;;;;0.00;0.00;;;;;;;9.86;71.05;98233.72;15685794;28;20040;-49
2023/11/03 08:12:15;;;;;;;0.15;0.13;;;;;;;10.03;70.49;98236.16;15730587;28;20131;-52
2023/11/03 08:19:50;;;;;;;0.00;0.00;;;;;;;10.03;70.59;98244.97;15714949;28;20041;-53
2023/11/03 08:27:24;;;;;;;0.10;0.10;;;;;;;9.75;70.61;98278.44;15711366;28;20191;-50
2023/11/03 08:34:57;;;;;;;0.20;0.20;;;;;;;10.21;69.06;98252.50;15667168;28;20226;-50
2023/11/03 08:42:32;;;;;;;0.20;0.20;;;;;;;9.66;70.72;98259.41;15734348;28;20056;-54
2023/11/03 08:50:07;;;;;;;0.45;0.45;;;;;;;10.76;67.23;98231.22;15714904;28;20036;-52
2023/11/03 08:57:43;;;;;;;0.10;0.05;;;;;;;10.71;67.60;98245.47;15716743;28;20381;-54
2023/11/03 09:05:17;;;;;;;0.30;0.30;;;;;;;10.50;68.09;98243.09;15704820;28;20120;-48
2023/11/03 09:12:54;;;;;;;0.00;0.00;;;;;;;10.73;66.89;98237.97;15711598;28;20127;-52
2023/11/03 09:20:29;;;;;;;0.00;0.00;;;;;;;10.85;65.72;98256.44;15734479;28;20043;-50
2023/11/03 09:28:06;;;;;;;0.43;0.43;;;;;;;10.81;65.78;98287.56;15735354;28;20064;-53
2023/11/03 09:35:39;;;;;;;0.00;0.00;;;;;;;10.60;66.49;98278.75;15734593;28;20580;-48
2023/11/03 09:43:14;;;;;;;0.00;0.00;;;;;;;10.78;64.67;98268.53;15722116;28;20117;-53
2023/11/03 09:50:48;;;;;;;0.00;0.00;;;;;;;11.18;63.95;98254.97;15732861;28;20115;-52
2023/11/03 09:58:24;;;;;;;0.00;0.00;;;;;;;10.89;64.86;98249.44;15716100;28;20047;-53
2023/11/03 10:05:57;;;;;;;0.00;0.00;;;;;;;11.40;62.70;98253.81;15725192;28;20348;-51
2023/11/03 10:13:33;;;;;;;0.10;0.10;;;;;;;11.21;64.51;98234.84;15688304;28;20083;-50
2023/11/03 10:21:08;;;;;;;0.00;0.00;;;;;;;11.15;63.21;98242.09;15685098;28;20425;-51
2023/11/03 10:28:46;;;;;;;0.15;0.15;;;;;;;11.20;63.76;98244.78;15701172;28;20067;-53
2023/11/03 10:36:19;;;;;;;0.15;0.15;;;;;;;11.19;64.08;98256.59;15715808;28;20048;-55
2023/11/03 10:43:57;;;;;;;;;;;;;;;11.23;63.42;98276.41;15665774;28;20047;-56
2023/11/03 10:51:36;;;;;;;0.00;0.00;;;;;;;11.55;62.82;98260.97;15716905;28;20007;-51
2023/11/03 10:59:11;;;;;;;0.00;0.00;;;;;;;11.18;63.87;98256.84;15708548;28;20358;-52
2023/11/03 11:06:49;;;;;;;0.00;0.00;;;;;;;11.75;61.79;98244.75;15717557;28;20413;-56
2023/11/03 11:14:26;;;;;;;0.00;0.00;;;;;;;11.13;64.77;98248.81;15728360;28;20048;-53
2023/11/03 11:22:04;;;;;;;0.00;0.00;;;;;;;11.54;63.02;98257.50;15690608;28;20045;-56
2023/11/03 11:29:40;;;;;;;0.15;0.15;;;;;;;11.71;61.49;98254.44;15707496;28;20124;-53
2023/11/03 11:37:27;;;;;;;0.10;0.10;;;;;;;11.82;61.92;98269.44;15741374;28;20045;-51
2023/11/03 11:45:02;;;;;;;0.32;0.32;;;;;;;11.75;62.48;98260.88;15698563;28;20028;-53
2023/11/03 11:52:37;;;;;;;0.00;0.00;;;;;;;11.61;61.67;98220.38;15720542;28;20040;-56
2023/11/03 12:00:15;;;;;;;0.00;0.00;;;;;;;11.63;61.92;98277.31;15702947;28;20044;-52
2023/11/03 12:07:49;;;;;;;0.00;0.00;;;;;;;11.86;62.81;98280.44;15725793;28;20043;-53
2023/11/03 12:15:25;;;;;;;0.00;0.00;;;;;;;12.12;61.50;98271.09;15699840;28;20052;-50
2023/11/03 12:22:59;;;;;;;0.00;0.00;;;;;;;12.07;61.71;98257.69;15716858;28;20432;-50
2023/11/03 12:30:48;;;;;;;0.43;0.43;;;;;;;12.45;61.14;98253.38;15716372;28;20484;-53
2023/11/03 12:38:21;;;;;;;0.00;0.00;;;;;;;13.34;58.19;98260.25;15709795;28;20497;-53
2023/11/03 12:46:05;;;;;;;0.55;0.10;;;;;;;13.87;56.03;98270.81;15703941;28;20401;-52
2023/11/03 12:53:46;;;;;;;0.20;0.10;;;;;;;13.25;56.58;98260.06;15677003;28;20057;-50
2023/11/03 13:01:21;;;;;;;0.28;0.22;;;;;;;13.57;55.88;98247.78;15724775;22;20484;-60
2023/11/03 13:08:56;;;;;;;0.00;0.00;;;;;;;13.01;57.86;98242.00;15668538;28;20420;-61
2023/11/03 13:16:31;;;;;;;0.00;0.00;;;;;;;12.75;59.13;98235.31;15668123;28;20065;-59
2023/11/03 13:24:08;;;;;;;0.00;0.00;;;;;;;12.72;57.94;98227.78;15661202;28;20037;-61
2023/11/03 13:31:43;;;;;;;0.00;0.00;;;;;;;13.09;56.97;98232.47;15648831;28;20045;-59
2023/11/03 13:39:17;;;;;;;0.55;0.17;;;;;;;12.93;57.82;98236.44;15667433;28;20036;-60
2023/11/03 13:46:51;;;;;;;0.00;0.00;;;;;;;12.41;58.44;98238.06;15664589;28;20438;-61
2023/11/03 13:54:26;;;;;;;0.00;0.00;;;;;;;12.51;59.05;98237.97;15670580;28;20065;-62
2023/11/03 14:02:01;;;;;;;0.00;0.00;;;;;;;12.73;57.56;98251.75;15673833;28;20421;-55
2023/11/03 14:09:34;;;;;;;0.05;0.05;;;;;;;12.76;58.66;98263.81;15678937;28;20041;-60
2023/11/03 14:17:09;;;;;;;0.00;0.00;;;;;;;12.49;58.60;98280.47;15681041;28;20311;-61
2023/11/03 14:24:42;;;;;;;0.00;0.00;;;;;;;12.42;59.21;98271.94;15657539;28;20418;-61
2023/11/03 14:32:17;;;;;;;;;;;;;;;12.40;59.73;98280.31;15677421;28;20041;-62
2023/11/03 14:39:50;;;;;;;0.00;0.00;;;;;;;12.46;60.53;98265.72;15677919;28;19924;-61
2023/11/03 14:47:24;;;;;;;0.00;0.00;;;;;;;12.50;61.81;98249.81;15672363;28;20045;-60
2023/11/03 14:54:57;;;;;;;0.17;0.17;;;;;;;12.61;61.55;98247.81;15648149;28;20049;-60
2023/11/03 15:02:33;;;;;;;0.00;0.00;;;;;;;12.54;62.42;98247.34;15660951;28;20096;-61
2023/11/03 15:10:10;;;;;;;0.00;0.00;;;;;;;12.61;60.97;98251.31;15669759;28;20048;-60
2023/11/03 15:17:46;;;;;;;0.00;0.00;;;;;;;12.33;62.12;98263.69;15645182;28;20095;-62
2023/11/03 15:25:20;;;;;;;0.03;0.03;;;;;;;11.48;65.50;98283.59;15652809;28;20049;-58
2023/11/03 15:32:56;;;;;;;0.00;0.00;;;;;;;11.80;64.54;98294.94;15649330;28;20532;-61
2023/11/03 15:40:29;;;;;;;0.00;0.00;;;;;;;12.10;64.59;98305.53;15657281;28;20468;-61
2023/11/03 15:48:05;;;;;;;6.80;0.98;;;;;;;12.07;63.08;98291.84;15657584;28;20037;-61
2023/11/03 15:55:38;;;;;;;0.00;0.00;;;;;;;12.17;63.13;98291.78;15667210;28;20056;-61
2023/11/03 16:03:18;;;;;;;0.00;0.00;;;;;;;12.20;64.37;98281.25;15651322;28;20099;-61
2023/11/03 16:10:52;;;;;;;0.00;0.00;;;;;;;12.14;64.91;98278.91;15668808;28;20048;-60
2023/11/03 16:18:27;;;;;;;0.00;0.00;;;;;;;12.20;64.09;98281.25;15638501;28;20127;-59
2023/11/03 16:26:01;;;;;;;0.20;0.20;;;;;;;11.97;64.24;98266.63;15639698;28;20048;-61
2023/11/03 16:33:36;;;;;;;1.45;0.73;;;;;;;11.89;65.77;98263.75;15646539;28;20122;-59
2023/11/03 16:41:10;;;;;;;0.98;0.38;;;;;;;11.78;66.60;98270.25;15643672;28;20040;-62
2023/11/03 16:48:44;;;;;;;1.38;0.88;;;;;;;11.97;64.75;98285.47;15641470;28;20058;-62
2023/11/03 16:56:17;;;;;;;0.40;0.38;;;;;;;11.97;64.57;98300.78;15640581;28;20045;-61
2023/11/03 17:03:54;;;;;;;0.00;0.00;;;;;;;11.97;64.60;98296.22;15657000;28;20519;-61
2023/11/03 17:11:28;;;;;;;0.47;0.43;;;;;;;11.81;64.92;98305.44;15655141;28;20131;-62
2023/11/03 17:19:04;;;;;;;0.60;0.60;;;;;;;11.77;64.78;98301.69;15636019;28;20203;-60
2023/11/03 17:26:37;;;;;;;0.00;0.00;;;;;;;11.88;65.08;98305.94;15654292;28;20494;-60
2023/11/03 17:34:13;;;;;;;0.00;0.00;;;;;;;11.63;66.44;98319.50;15658775;28;20052;-61
2023/11/03 17:41:46;;;;;;;0.15;0.15;;;;;;;11.65;66.25;98325.41;15678213;28;20135;-62
2023/11/03 17:49:21;;;;;;;0.00;0.00;;;;;;;11.62;66.41;98348.25;15660438;28;20260;-60
2023/11/03 17:56:57;;;;;;;0.00;0.00;;;;;;;11.34;66.47;98346.22;15660056;28;20037;-60
2023/11/03 18:04:33;;;;;;;0.52;0.52;;;;;;;11.70;65.75;98360.31;15677701;28;20470;-62
2023/11/03 18:12:07;;;;;;;0.00;0.00;;;;;;;11.30;67.43;98366.66;15677652;28;20037;-61
2023/11/03 18:19:42;;;;;;;0.00;0.00;;;;;;;11.68;65.88;98381.28;15676045;28;20275;-60
2023/11/03 18:27:15;;;;;;;0.03;0.03;;;;;;;11.41;67.76;98401.25;15658818;28;20047;-61
2023/11/03 18:34:50;;;;;;;0.00;0.00;;;;;;;11.86;65.81;98401.41;15657710;28;20082;-59
2023/11/03 18:42:29;;;;;;;0.88;0.43;;;;;;;12.04;65.56;98400.78;15682409;28;20036;-60
2023/11/03 18:50:04;;;;;;;0.00;0.00;;;;;;;12.57;63.71;98395.59;15672884;28;20147;-59
2023/11/03 18:57:37;;;;;;;0.50;0.22;;;;;;;12.18;64.15;98407.16;15662825;28;20445;-59
2023/11/03 19:05:12;;;;;;;0.10;0.10;;;;;;;11.54;66.06;98418.69;15745409;22;20570;-56
2023/11/03 19:12:46;;;;;;;0.28;0.17;;;;;;;10.89;69.34;98415.03;15711728;28;20453;-56
2023/11/03 19:20:20;;;;;;;0.10;0.10;;;;;;;10.91;69.79;98424.44;15701910;28;20090;-57
2023/11/03 19:27:54;;;;;;;0.00;0.00;;;;;;;10.91;70.05;98413.69;15722817;28;20467;-55
2023/11/03 19:35:31;;;;;;;0.00;0.00;;;;;;;10.59;72.76;98410.47;15717816;28;20048;-52
2023/11/03 19:43:04;;;;;;;0.00;0.00;;;;;;;10.52;74.10;98410.72;15711260;28;20520;-56
2023/11/03 19:50:39;;;;;;;0.00;0.00;;;;;;;10.16;76.09;98423.22;15700357;28;20047;-50
2023/11/03 19:58:12;;;;;;;0.00;0.00;;;;;;;10.36;75.05;98420.63;15685340;28;20083;-54
2023/11/03 20:05:47;;;;;;;;;;;;;;;11.00;73.31;98422.00;15694623;28;20055;-53
2023/11/03 20:13:20;;;;;;;0.10;0.10;;;;;;;11.11;71.45;98418.25;15717133;28;20003;-53
2023/11/03 20:20:58;;;;;;;0.52;0.45;;;;;;;10.71;74.29;98417.16;15707433;28;20033;-50
2023/11/03 20:28:31;;;;;;;0.25;0.25;;;;;;;10.33;75.47;98423.84;15691483;28;20405;-55
2023/11/03 20:36:07;;;;;;;0.10;0.10;;;;;;;10.16;75.69;98417.88;15724303;28;20138;-51
2023/11/03 20:43:41;;;;;;;1.70;0.38;;;;;;;10.23;75.02;98423.78;15716772;28;20223;-52
2023/11/03 20:51:17;;;;;;;0.08;0.08;;;;;;;9.88;77.07;98424.47;15706653;28;20557;-54
2023/11/03 20:58:51;;;;;;;0.50;0.50;;;;;;;9.67;76.19;98424.41;15697512;28;20040;-52
2023/11/03 21:06:26;;;;;;;0.13;0.13;;;;;;;9.86;75.91;98424.75;15714875;28;20049;-56
2023/11/03 21:13:59;;;;;;;0.10;0.00;;;;;;;9.94;74.68;98434.97;15717346;28;20056;-54
2023/11/03 21:21:34;;;;;;;0.00;0.00;;;;;;;9.88;73.89;98437.88;15715464;28;20559;-51
2023/11/03 21:29:08;;;;;;;0.00;0.00;;;;;;;9.84;73.72;98442.97;15717637;28;20040;-52
2023/11/03 21:36:43;;;;;;;0.85;0.30;;;;;;;9.88;73.36;98445.91;15707739;28;20052;-54
2023/11/03 21:44:17;;;;;;;0.00;0.00;;;;;;;9.63;73.67;98458.13;15705607;28;20036;-52
2023/11/03 21:51:52;;;;;;;0.73;0.32;;;;;;;10.03;71.81;98456.72;15716022;28;20157;-56
2023/11/03 21:59:25;;;;;;;0.00;0.00;;;;;;;9.85;72.75;98473.25;15696272;28;20087;-51
2023/11/03 22:07:01;;;;;;;0.10;0.10;;;;;;;10.22;71.13;98468.56;15690345;28;20132;-53
2023/11/03 22:14:34;;;;;;;0.10;0.10;;;;;;;9.83;71.75;98480.72;15722543;28;20041;-50
2023/11/03 22:22:09;;;;;;;0.00;0.00;;;;;;;9.88;71.47;98486.91;15717113;28;20353;-52
2023/11/03 22:29:43;;;;;;;0.00;0.00;;;;;;;10.05;70.78;98486.72;15710665;28;20040;-51
2023/11/03 22:37:18;;;;;;;0.00;0.00;;;;;;;10.24;69.30;98495.13;15731239;28;20162;-51
2023/11/03 22:44:51;;;;;;;3.95;0.90;;;;;;;10.38;69.34;98495.44;15735662;28;20048;-50
2023/11/03 22:52:25;;;;;;;;;;;;;;;10.38;68.88;98500.81;15721184;28;20037;-49
2023/11/03 22:59:58;;;;;;;0.00;0.00;;;;;;;9.97;70.12;98517.50;15721018;28;19956;-50
2023/11/03 23:07:33;;;;;;;0.00;0.00;;;;;;;9.80;69.43;98516.09;15699713;28;20490;-50
2023/11/03 23:15:09;;;;;;;0.00;0.00;;;;;;;10.02;69.51;98521.28;15711566;28;20131;-51
2023/11/03 23:22:49;;;;;;;0.60;0.20;;;;;;;9.85;69.57;98529.50;15698312;28;20040;-54
2023/11/03 23:30:22;;;;;;;0.00;0.00;;;;;;;9.90;69.04;98540.25;15709876;28;20047;-54
2023/11/03 23:37:57;;;;;;;0.00;0.00;;;;;;;10.20;67.77;98543.06;15713157;28;20505;-55
2023/11/03 23:45:35;;;;;;;0.00;0.00;;;;;;;9.88;68.75;98545.06;15715365;28;20452;-52
2023/11/03 23:53:16;;;;;;;0.05;0.05;;;;;;;9.59;70.10;98544.59;15720436;28;20036;-52
